Time;durP1;ratioP1;P1;durP2;ratioP2;P2;SDS_P1;SDS_P2;PMS_P1;PMS_P2;Temp;Humidity;BMP_temperature;BMP_pressure;BME280_temperature;BME280_humidity;BME280_pressure;Samples;Min_cycle;Max_cycle;Signal;HPM_P1;HPM_P2
2023/11/25 00:00:48;;;;;;;1.30;1.20;;;;;;;-141.23;100.00;62281.09;5101018;27;20043;-66
2023/11/25 00:03:14;;;;;;;0.60;0.60;;;;;;;-141.23;100.00;62281.09;5118646;27;20047;-66
2023/11/25 00:05:41;;;;;;;1.33;1.17;;;;;;;-141.23;100.00;62281.09;5117799;27;20057;-66
2023/11/25 00:08:07;;;;;;;0.97;0.83;;;;;;;-141.23;100.00;62281.09;5117776;27;20039;-66
2023/11/25 00:10:33;;;;;;;0.50;0.50;;;;;;;-141.23;100.00;62281.09;5117855;27;20066;-66
2023/11/25 00:13:00;;;;;;;2.13;1.50;;;;;;;-141.23;100.00;62281.09;5084721;27;20046;-66
2023/11/25 00:15:27;;;;;;;0.90;0.90;;;;;;;-141.23;100.00;62281.09;5135627;27;20051;-66
2023/11/25 00:17:53;;;;;;;2.23;1.33;;;;;;;-141.23;100.00;62281.09;5118307;27;20439;-66
2023/11/25 00:20:20;;;;;;;7.83;4.10;;;;;;;-141.23;100.00;62281.09;5117807;27;20046;-67
2023/11/25 00:22:46;;;;;;;1.37;1.27;;;;;;;-141.23;100.00;62281.09;5134791;27;20192;-66
2023/11/25 00:25:13;;;;;;;5.10;2.87;;;;;;;-141.23;100.00;62281.09;5117613;27;20221;-67
2023/11/25 00:27:39;;;;;;;0.60;0.60;;;;;;;-141.23;100.00;62281.09;5083407;27;20063;-67
2023/11/25 00:30:07;;;;;;;1.00;1.00;;;;;;;-141.23;100.00;62281.09;5134570;27;20043;-67
2023/11/25 00:32:37;;;;;;;0.70;0.70;;;;;;;-141.23;100.00;62281.09;5100805;27;20095;-67
2023/11/25 00:35:05;;;;;;;0.80;0.80;;;;;;;-141.23;100.00;62281.09;5100576;27;20095;-67
2023/11/25 00:37:32;;;;;;;0.67;0.67;;;;;;;-141.23;100.00;62281.09;5100267;27;20677;-68
2023/11/25 00:40:01;;;;;;;0.83;0.80;;;;;;;-141.23;100.00;62281.09;5100383;27;20139;-67
2023/11/25 00:42:30;;;;;;;0.60;0.60;;;;;;;-141.23;100.00;62281.09;5100837;27;20184;-67
2023/11/25 00:44:55;;;;;;;16.33;6.70;;;;;;;-141.23;100.00;62281.09;5134141;27;20449;-67
2023/11/25 00:47:22;;;;;;;12.40;5.10;;;;;;;-141.23;100.00;62281.09;5099809;27;20090;-67
2023/11/25 00:49:52;;;;;;;0.60;0.60;;;;;;;-141.23;100.00;62281.09;5100964;27;20459;-67
2023/11/25 00:52:19;;;;;;;0.52;0.52;;;;;;;-141.23;100.00;62281.09;5101502;27;20050;-67
2023/11/25 00:54:46;;;;;;;0.83;0.80;;;;;;;-141.23;100.00;62281.09;5100802;27;20050;-68
2023/11/25 00:57:12;;;;;;;0.80;0.73;;;;;;;-141.23;100.00;62281.09;5133458;27;20047;-67
2023/11/25 00:59:37;;;;;;;0.97;0.90;;;;;;;-141.23;100.00;62281.09;5081798;27;20051;-68
2023/11/25 01:02:03;;;;;;;0.57;0.57;;;;;;;-141.23;100.00;62281.09;5115774;27;20055;-68
2023/11/25 01:04:29;;;;;;;3.40;2.13;;;;;;;-141.23;100.00;62281.09;5065327;27;20517;-67
2023/11/25 01:06:55;;;;;;;0.67;0.67;;;;;;;-141.23;100.00;62281.09;5115976;27;20031;-67
2023/11/25 01:09:25;;;;;;;0.70;0.70;;;;;;;-141.23;100.00;62281.09;5082157;27;20054;-67
2023/11/25 01:11:54;;;;;;;1.90;1.42;;;;;;;-141.23;100.00;62281.09;5098535;27;20050;-67
2023/11/25 01:14:20;;;;;;;3.90;2.33;;;;;;;-141.23;100.00;62281.09;5099403;27;20409;-67
2023/11/25 01:16:46;;;;;;;0.60;0.60;;;;;;;-141.23;100.00;62281.09;5098822;27;20047;-66
2023/11/25 01:19:12;;;;;;;6.93;3.27;;;;;;;-141.23;100.00;62281.09;5081804;27;20050;-67
2023/11/25 01:21:38;;;;;;;1.40;1.30;;;;;;;-141.23;100.00;62281.09;5081354;27;20047;-67
2023/11/25 01:24:06;;;;;;;2.17;1.53;;;;;;;-141.23;100.00;62281.09;5081338;27;20039;-67
2023/11/25 01:26:32;;;;;;;5.93;3.07;;;;;;;-141.23;100.00;62281.09;5115373;27;20142;-66
2023/11/25 01:28:58;;;;;;;1.00;1.00;;;;;;;-141.23;100.00;62281.09;5064568;27;20145;-66
2023/11/25 01:31:23;;;;;;;0.73;0.73;;;;;;;-141.23;100.00;62281.09;5064752;27;20062;-67
2023/11/25 01:33:50;;;;;;;1.73;1.50;;;;;;;-141.23;100.00;62281.09;5116235;27;20047;-67
2023/11/25 01:36:15;;;;;;;6.83;3.93;;;;;;;-141.23;100.00;62281.09;5133629;27;20051;-67
2023/11/25 01:38:42;;;;;;;14.27;5.73;;;;;;;-141.23;100.00;62281.09;5116056;27;20444;-66
2023/11/25 01:41:08;;;;;;;12.33;5.27;;;;;;;-141.23;100.00;62281.09;5132974;27;20050;-66
2023/11/25 01:43:34;;;;;;;3.70;2.47;;;;;;;-141.23;100.00;62281.09;5133035;27;20054;-66
2023/11/25 01:46:02;;;;;;;5.97;2.93;;;;;;;-141.23;100.00;62281.09;5115897;27;20043;-67
2023/11/25 01:48:28;;;;;;;0.60;0.60;;;;;;;-141.23;100.00;62281.09;5082200;27;20043;-67
2023/11/25 01:50:55;;;;;;;0.50;0.50;;;;;;;-141.23;100.00;62281.09;5132960;27;20489;-66
2023/11/25 01:53:21;;;;;;;0.73;0.63;;;;;;;-141.23;100.00;62281.09;5133027;27;20048;-65
2023/11/25 01:55:51;;;;;;;9.13;4.77;;;;;;;-141.23;100.00;62281.09;5133092;27;20383;-66
2023/11/25 01:58:19;;;;;;;0.60;0.60;;;;;;;-141.23;100.00;62281.09;5132031;27;20051;-66
2023/11/25 02:00:46;;;;;;;10.43;2.60;;;;;;;-141.23;100.00;62281.09;5149816;27;20038;-66
2023/11/25 02:03:13;;;;;;;5.73;3.70;;;;;;;-141.23;100.00;62281.09;5098639;27;20039;-66
2023/11/25 02:05:39;;;;;;;0.60;0.60;;;;;;;-141.23;100.00;62281.09;5115619;27;20051;-66
2023/11/25 02:08:09;;;;;;;0.60;0.60;;;;;;;-141.23;100.00;62281.09;5132633;27;20436;-67
2023/11/25 02:10:35;;;;;;;0.50;0.50;;;;;;;-141.23;100.00;62281.09;5132996;27;20130;-66
2023/11/25 02:13:02;;;;;;;4.43;2.57;;;;;;;-141.23;100.00;62281.09;5098346;27;20134;-66
2023/11/25 02:15:30;;;;;;;1.90;1.30;;;;;;;-141.23;100.00;62281.09;5132648;27;20043;-66
2023/11/25 02:17:58;;;;;;;0.60;0.60;;;;;;;-141.23;100.00;62281.09;5116113;27;20035;-67
2023/11/25 02:20:41;;;;;;;0.60;0.60;;;;;;;-141.23;100.00;62281.09;5115848;27;20046;-66
2023/11/25 02:23:18;;;;;;;0.53;0.53;;;;;;;-141.23;100.00;62281.09;5116492;27;20050;-66
2023/11/25 02:25:48;;;;;;;0.60;0.60;;;;;;;-141.23;100.00;62281.09;5132133;27;20059;-66
2023/11/25 02:28:19;;;;;;;4.20;2.77;;;;;;;-141.23;100.00;62281.09;5098180;27;20070;-66
2023/11/25 02:30:48;;;;;;;0.60;0.60;;;;;;;-141.23;100.00;62281.09;5132271;27;20532;-67
2023/11/25 02:33:15;;;;;;;0.60;0.60;;;;;;;-141.23;100.00;62281.09;5132333;27;20039;-65
2023/11/25 02:35:48;;;;;;;0.60;0.60;;;;;;;-141.23;100.00;62281.09;5081204;27;20470;-65
2023/11/25 02:38:15;;;;;;;0.60;0.60;;;;;;;-141.23;100.00;62281.09;5116035;27;20050;-66
2023/11/25 02:40:43;;;;;;;0.53;0.53;;;;;;;-141.23;100.00;62281.09;5125379;27;20393;-66
2023/11/25 02:43:12;;;;;;;0.60;0.60;;;;;;;-141.23;100.00;62281.09;5134137;27;20038;-66
2023/11/25 02:45:39;;;;;;;0.57;0.57;;;;;;;-141.23;100.00;62281.09;5150432;27;20035;-66
2023/11/25 02:48:05;;;;;;;2.17;1.63;;;;;;;-141.23;100.00;62281.09;5116816;27;20172;-66
2023/11/25 02:50:35;;;;;;;2.60;2.07;;;;;;;-141.23;100.00;62281.09;5133581;27;20496;-66
2023/11/25 02:53:01;;;;;;;0.80;0.80;;;;;;;-141.23;100.00;62281.09;5099801;27;20030;-66
2023/11/25 02:55:27;;;;;;;1.00;0.90;;;;;;;-141.23;100.00;62281.09;5133263;27;20617;-66
2023/11/25 02:57:52;;;;;;;0.67;0.67;;;;;;;-141.23;100.00;62281.09;5134068;27;20066;-66
2023/11/25 03:02:53;;;;;;;0.53;0.53;;;;;;;-141.23;100.00;62281.09;5136340;27;20050;-66
2023/11/25 03:05:22;;;;;;;0.60;0.60;;;;;;;-141.23;100.00;62281.09;5135426;27;20049;-66
2023/11/25 03:07:50;;;;;;;0.67;0.67;;;;;;;-141.23;100.00;62281.09;5102077;27;20045;-66
2023/11/25 03:10:18;;;;;;;1.00;0.97;;;;;;;-141.23;100.00;62281.09;5118675;27;20049;-66
2023/11/25 03:12:44;;;;;;;0.60;0.60;;;;;;;-141.23;100.00;62281.09;5152550;27;20047;-66
2023/11/25 03:15:11;;;;;;;0.60;0.60;;;;;;;-141.23;100.00;62281.09;5152586;27;20050;-66
2023/11/25 03:17:38;;;;;;;0.57;0.57;;;;;;;-141.23;100.00;62281.09;5118349;27;20043;-66
2023/11/25 03:20:07;;;;;;;0.50;0.50;;;;;;;-141.23;100.00;62281.09;5118142;27;20049;-66
2023/11/25 03:22:33;;;;;;;0.77;0.77;;;;;;;-141.23;100.00;62281.09;5124162;28;20382;-66
2023/11/25 03:25:00;;;;;;;5.83;0.60;;;;;;;-141.23;100.00;62281.09;5097260;28;20035;-67
2023/11/25 03:27:31;;;;;;;0.60;0.60;;;;;;;-141.23;100.00;62281.09;5148403;27;20041;-66
2023/11/25 03:30:00;;;;;;;0.60;0.60;;;;;;;-141.23;100.00;62281.09;5098559;28;20039;-65
2023/11/25 03:32:25;;;;;;;0.50;0.50;;;;;;;-141.23;100.00;62281.09;5097942;28;20054;-66
2023/11/25 03:34:52;;;;;;;0.53;0.53;;;;;;;-141.23;100.00;62281.09;5131982;28;20054;-66
2023/11/25 03:37:19;;;;;;;1.47;1.07;;;;;;;-141.23;100.00;62281.09;5114530;28;20047;-67
2023/11/25 03:39:45;;;;;;;1.30;1.20;;;;;;;-141.23;100.00;62281.09;5114504;28;20041;-66
2023/11/25 03:42:11;;;;;;;0.60;0.60;;;;;;;-141.23;100.00;62281.09;5097375;28;20387;-66
2023/11/25 03:44:37;;;;;;;0.73;0.73;;;;;;;-141.23;100.00;62281.09;5097536;28;20046;-66
2023/11/25 03:47:05;;;;;;;0.80;0.80;;;;;;;-141.23;100.00;62281.09;5097271;28;20047;-65
2023/11/25 03:49:31;;;;;;;0.60;0.60;;;;;;;-141.23;100.00;62281.09;5097725;28;20039;-66
2023/11/25 03:51:57;;;;;;;0.60;0.60;;;;;;;-141.23;100.00;62281.09;5131795;28;20123;-65
2023/11/25 03:54:23;;;;;;;0.83;0.83;;;;;;;-141.23;100.00;62281.09;5097578;28;20053;-65
2023/11/25 03:56:49;;;;;;;0.73;0.73;;;;;;;-141.23;100.00;62281.09;5080297;28;20047;-65
2023/11/25 03:59:15;;;;;;;0.60;0.60;;;;;;;-141.23;100.00;62281.09;5114006;28;20042;-65
2023/11/25 04:01:44;;;;;;;0.50;0.50;;;;;;;-141.23;100.00;62281.09;5079162;28;20061;-68
2023/11/25 04:04:15;;;;;;;0.67;0.67;;;;;;;-141.23;100.00;62281.09;5096420;28;20051;-68
2023/11/25 04:06:46;;;;;;;0.60;0.60;;;;;;;-141.23;100.00;62281.09;5048417;28;20775;-69
2023/11/25 04:09:19;;;;;;;0.57;0.57;;;;;;;-141.23;100.00;62281.09;5033341;28;20045;-68
2023/11/25 04:11:45;;;;;;;0.63;0.63;;;;;;;-141.23;100.00;62281.09;5015782;28;20044;-66
2023/11/25 04:14:12;;;;;;;0.60;0.60;;;;;;;-141.23;100.00;62281.09;5032110;28;20075;-67
2023/11/25 04:16:42;;;;;;;0.60;0.60;;;;;;;-141.23;100.00;62281.09;5015907;28;20064;-71
2023/11/25 04:19:10;;;;;;;0.60;0.60;;;;;;;-141.23;100.00;62281.09;5032251;28;20045;-72
2023/11/25 04:21:39;;;;;;;0.63;0.63;;;;;;;-141.23;100.00;62281.09;5033883;28;20099;-69
2023/11/25 04:24:08;;;;;;;0.60;0.60;;;;;;;-141.23;100.00;62281.09;5052353;28;20058;-69
2023/11/25 04:26:36;;;;;;;0.57;0.57;;;;;;;-141.23;100.00;62281.09;5048874;28;20050;-71
2023/11/25 04:29:02;;;;;;;0.60;0.60;;;;;;;-141.23;100.00;62281.09;5049242;28;20057;-71
2023/11/25 04:31:28;;;;;;;0.60;0.60;;;;;;;-141.23;100.00;62281.09;5016928;28;20140;-71
2023/11/25 04:33:54;;;;;;;0.93;0.90;;;;;;;-141.23;100.00;62281.09;5013364;28;20112;-70
2023/11/25 04:36:20;;;;;;;0.60;0.60;;;;;;;-141.23;100.00;62281.09;5013029;28;20141;-70
2023/11/25 04:38:47;;;;;;;0.53;0.53;;;;;;;-141.23;100.00;62281.09;5066418;28;20049;-71
2023/11/25 04:41:18;;;;;;;0.97;0.90;;;;;;;-141.23;100.00;62281.09;5019054;28;20053;-73
2023/11/25 04:43:43;;;;;;;0.50;0.50;;;;;;;-141.23;100.00;62281.09;5035587;28;20393;-73
2023/11/25 04:46:10;;;;;;;0.57;0.57;;;;;;;-141.23;100.00;62281.09;5018811;28;20059;-71
2023/11/25 04:48:40;;;;;;;0.50;0.50;;;;;;;-141.23;100.00;62281.09;5035903;28;20068;-70
2023/11/25 04:51:06;;;;;;;0.60;0.60;;;;;;;-141.23;100.00;62281.09;5002267;28;20056;-70
2023/11/25 04:53:32;;;;;;;0.50;0.50;;;;;;;-141.23;100.00;62281.09;5015177;28;20037;-70
2023/11/25 04:55:58;;;;;;;0.50;0.50;;;;;;;-141.23;100.00;62281.09;5005833;28;20158;-71
2023/11/25 04:58:24;;;;;;;0.50;0.50;;;;;;;-141.23;100.00;62281.09;5074579;27;20043;-72
2023/11/25 05:00:50;;;;;;;0.60;0.60;;;;;;;-141.23;100.00;62281.09;5100102;27;20488;-73
2023/11/25 05:03:16;;;;;;;0.60;0.60;;;;;;;-141.23;100.00;62281.09;5116960;27;20127;-73
2023/11/25 05:05:42;;;;;;;0.60;0.60;;;;;;;-141.23;100.00;62281.09;5100112;27;20054;-72
2023/11/25 05:08:09;;;;;;;1.87;1.23;;;;;;;-141.23;100.00;62281.09;5078374;28;20047;-72
2023/11/25 05:10:35;;;;;;;0.60;0.60;;;;;;;-141.23;100.00;62281.09;5060915;28;20116;-72
2023/11/25 05:13:02;;;;;;;0.60;0.60;;;;;;;-141.23;100.00;62281.09;5059701;28;20055;-73
2023/11/25 05:15:28;;;;;;;0.60;0.60;;;;;;;-141.23;100.00;62281.09;5061768;28;20063;-73
2023/11/25 05:17:55;;;;;;;0.80;0.80;;;;;;;-141.23;100.00;62281.09;5061759;28;20054;-73
2023/11/25 05:20:21;;;;;;;0.57;0.57;;;;;;;-141.23;100.00;62281.09;5061806;28;20043;-74
2023/11/25 05:22:51;;;;;;;0.60;0.60;;;;;;;-141.23;100.00;62281.09;5095441;28;20490;-71
2023/11/25 05:25:18;;;;;;;0.57;0.57;;;;;;;-141.23;100.00;62281.09;5095449;28;20075;-72
2023/11/25 05:27:45;;;;;;;0.50;0.50;;;;;;;-141.23;100.00;62281.09;5078090;28;20047;-73
2023/11/25 05:30:13;;;;;;;0.57;0.57;;;;;;;-141.23;100.00;62281.09;5078149;28;20062;-73
2023/11/25 05:32:42;;;;;;;1.47;1.17;;;;;;;-141.23;100.00;62281.09;5078174;28;20042;-72
2023/11/25 05:35:09;;;;;;;0.73;0.73;;;;;;;-141.23;100.00;62281.09;5078586;28;20093;-71
2023/11/25 05:37:36;;;;;;;4.63;2.67;;;;;;;-141.23;100.00;62281.09;5078311;28;20546;-73
2023/11/25 05:40:08;;;;;;;0.50;0.50;;;;;;;-141.23;100.00;62281.09;5095016;27;20051;-74
2023/11/25 05:42:37;;;;;;;0.60;0.60;;;;;;;-141.23;100.00;62281.09;5099424;27;20045;-69
2023/11/25 05:45:11;;;;;;;0.50;0.50;;;;;;;-141.23;100.00;62281.09;5133381;27;20035;-69
2023/11/25 05:47:37;;;;;;;0.60;0.60;;;;;;;-141.23;100.00;62281.09;5100063;27;20043;-69
2023/11/25 05:50:06;;;;;;;0.50;0.50;;;;;;;-141.23;100.00;62281.09;5099084;27;20138;-70
2023/11/25 05:52:32;;;;;;;0.57;0.57;;;;;;;-141.23;100.00;62281.09;5099266;27;20475;-69
2023/11/25 05:54:58;;;;;;;0.60;0.60;;;;;;;-141.23;100.00;62281.09;5099059;27;20031;-70
2023/11/25 05:57:25;;;;;;;0.60;0.60;;;;;;;-141.23;100.00;62281.09;5081826;27;20607;-70
2023/11/25 05:59:51;;;;;;;1.07;1.00;;;;;;;-141.23;100.00;62281.09;5098657;27;20088;-70
2023/11/25 06:02:17;;;;;;;0.50;0.50;;;;;;;-141.23;100.00;62281.09;5098837;27;20047;-69
2023/11/25 06:04:44;;;;;;;2.23;1.57;;;;;;;-141.23;100.00;62281.09;5098709;27;20418;-70
2023/11/25 06:07:10;;;;;;;1.10;1.07;;;;;;;-141.23;100.00;62281.09;5098392;27;20043;-70
2023/11/25 06:09:36;;;;;;;0.70;0.70;;;;;;;-141.23;100.00;62281.09;5098549;27;20058;-70
2023/11/25 06:12:02;;;;;;;1.40;1.20;;;;;;;-141.23;100.00;62281.09;5098682;27;20047;-70
2023/11/25 06:14:28;;;;;;;1.23;1.07;;;;;;;-141.23;100.00;62281.09;5132641;27;20134;-70
2023/11/25 06:16:56;;;;;;;1.43;1.23;;;;;;;-141.23;100.00;62281.09;5132479;27;20576;-67
2023/11/25 06:19:23;;;;;;;2.97;1.53;;;;;;;-141.23;100.00;62281.09;5122515;27;20031;-68
2023/11/25 06:21:49;;;;;;;5.57;2.77;;;;;;;-141.23;100.00;62281.09;5153327;27;20099;-69
2023/11/25 06:24:15;;;;;;;2.07;1.37;;;;;;;-141.23;100.00;62281.09;5132883;27;20031;-68
2023/11/25 06:26:41;;;;;;;3.20;2.03;;;;;;;-141.23;100.00;62281.09;5101105;27;20427;-68
2023/11/25 06:29:07;;;;;;;2.80;2.30;;;;;;;-141.23;100.00;62281.09;5134377;27;20611;-68
2023/11/25 06:31:36;;;;;;;2.17;1.53;;;;;;;-141.23;100.00;62281.09;5094276;27;20044;-68
2023/11/25 06:34:02;;;;;;;1.23;0.87;;;;;;;-141.23;100.00;62281.09;5125307;27;20031;-68
2023/11/25 06:36:28;;;;;;;6.37;3.50;;;;;;;-141.23;100.00;62281.09;5116146;27;20042;-71
2023/11/25 06:38:54;;;;;;;5.47;2.30;;;;;;;-141.23;100.00;62281.09;5116014;27;20038;-69
2023/11/25 06:41:23;;;;;;;6.17;3.17;;;;;;;-141.23;100.00;62281.09;5115917;27;20046;-69
2023/11/25 06:43:49;;;;;;;0.73;0.73;;;;;;;-141.23;100.00;62281.09;5109821;27;20082;-69
2023/11/25 06:46:15;;;;;;;0.73;0.73;;;;;;;-141.23;100.00;62281.09;5097833;27;20356;-66
2023/11/25 06:48:41;;;;;;;0.80;0.80;;;;;;;-141.23;100.00;62281.09;5118071;27;20049;-67
2023/11/25 06:51:07;;;;;;;8.17;4.27;;;;;;;-141.23;100.00;62281.09;5100270;27;20107;-67
2023/11/25 06:53:33;;;;;;;2.50;1.37;;;;;;;-141.23;100.00;62281.09;5124184;27;20503;-67
2023/11/25 06:55:59;;;;;;;2.00;1.43;;;;;;;-141.23;100.00;62281.09;5099284;27;20543;-67
2023/11/25 06:58:25;;;;;;;0.67;0.67;;;;;;;-141.23;100.00;62281.09;5124129;27;20035;-66
2023/11/25 07:00:51;;;;;;;1.80;1.10;;;;;;;-141.23;100.00;62281.09;5126236;27;20065;-67
2023/11/25 07:03:17;;;;;;;0.60;0.60;;;;;;;-141.23;100.00;62281.09;5093409;27;20039;-68
2023/11/25 07:05:42;;;;;;;3.27;1.33;;;;;;;-141.23;100.00;62281.09;5126505;27;20047;-68
2023/11/25 07:08:09;;;;;;;0.60;0.60;;;;;;;-141.23;100.00;62281.09;5100766;27;20148;-68
2023/11/25 07:10:35;;;;;;;0.67;0.67;;;;;;;-141.23;100.00;62281.09;5127546;27;20391;-67
2023/11/25 07:13:05;;;;;;;0.70;0.70;;;;;;;-141.23;100.00;62281.09;5101550;27;20092;-68
2023/11/25 07:15:31;;;;;;;1.07;0.97;;;;;;;-141.23;100.00;62281.09;5117946;27;20043;-68
2023/11/25 07:17:57;;;;;;;1.07;1.00;;;;;;;-141.23;100.00;62281.09;5143670;27;20046;-68
2023/11/25 07:20:23;;;;;;;0.70;0.70;;;;;;;-141.23;100.00;62281.09;5125517;27;20506;-68
2023/11/25 07:22:49;;;;;;;0.53;0.53;;;;;;;-141.23;100.00;62281.09;5117629;27;20038;-68
2023/11/25 07:25:15;;;;;;;1.10;1.00;;;;;;;-141.23;100.00;62281.09;5100998;27;20470;-68
2023/11/25 07:27:44;;;;;;;0.77;0.77;;;;;;;-141.23;100.00;62281.09;5110798;27;20051;-67
2023/11/25 07:30:10;;;;;;;1.77;1.27;;;;;;;-141.23;100.00;62281.09;5118052;27;20046;-69
2023/11/25 07:32:40;;;;;;;0.70;0.70;;;;;;;-141.23;100.00;62281.09;5101170;27;20038;-69
2023/11/25 07:35:07;;;;;;;0.70;0.70;;;;;;;-141.23;100.00;62281.09;5100742;27;20463;-69
2023/11/25 07:37:34;;;;;;;1.13;1.00;;;;;;;-141.23;100.00;62281.09;5124422;27;20039;-67
2023/11/25 07:40:03;;;;;;;2.77;1.80;;;;;;;-141.23;100.00;62281.09;5101001;27;20038;-67
2023/11/25 07:42:30;;;;;;;0.90;0.90;;;;;;;-141.23;100.00;62281.09;5117820;27;20039;-67
2023/11/25 07:44:57;;;;;;;1.80;1.60;;;;;;;-141.23;100.00;62281.09;5117301;27;20035;-67
2023/11/25 07:47:23;;;;;;;1.67;1.50;;;;;;;-141.23;100.00;62281.09;5133031;27;20039;-67
2023/11/25 07:49:49;;;;;;;1.23;1.13;;;;;;;-141.23;100.00;62281.09;5132484;27;20039;-67
2023/11/25 07:52:15;;;;;;;1.10;0.77;;;;;;;-141.23;100.00;62281.09;5099815;27;20092;-67
2023/11/25 07:54:42;;;;;;;0.53;0.53;;;;;;;-141.23;100.00;62281.09;5118357;27;20039;-67
2023/11/25 07:57:08;;;;;;;0.60;0.60;;;;;;;-141.23;100.00;62281.09;5136687;27;20538;-67
2023/11/25 07:59:34;;;;;;;0.67;0.67;;;;;;;-141.23;100.00;62281.09;5139157;27;20066;-68
2023/11/25 08:02:02;;;;;;;0.77;0.77;;;;;;;-141.23;100.00;62281.09;5121711;27;20039;-67
2023/11/25 08:04:29;;;;;;;0.73;0.73;;;;;;;-141.23;100.00;62281.09;5121735;27;20457;-67
2023/11/25 08:06:56;;;;;;;0.73;0.73;;;;;;;-141.23;100.00;62281.09;5139151;27;20043;-67
2023/11/25 08:09:23;;;;;;;0.53;0.53;;;;;;;-141.23;100.00;62281.09;5104653;27;20047;-67
2023/11/25 08:11:49;;;;;;;0.87;0.83;;;;;;;-141.23;100.00;62281.09;5104765;27;20103;-68
2023/11/25 08:14:17;;;;;;;0.80;0.80;;;;;;;-141.23;100.00;62281.09;5104689;27;20386;-67
2023/11/25 08:16:43;;;;;;;0.83;0.80;;;;;;;-141.23;100.00;62281.09;5121589;27;20038;-67
2023/11/25 08:19:09;;;;;;;0.70;0.70;;;;;;;-141.23;100.00;62281.09;5138944;27;20045;-67
2023/11/25 08:21:35;;;;;;;0.70;0.70;;;;;;;-141.23;100.00;62281.09;5104708;27;20054;-67
2023/11/25 08:24:01;;;;;;;2.40;0.80;;;;;;;-141.23;100.00;62281.09;5104287;27;20034;-68
2023/11/25 08:26:27;;;;;;;0.67;0.67;;;;;;;-141.23;100.00;62281.09;5138581;27;20137;-67
2023/11/25 08:28:54;;;;;;;0.80;0.80;;;;;;;-141.23;100.00;62281.09;5104227;27;20144;-67
2023/11/25 08:31:20;;;;;;;0.70;0.67;;;;;;;-141.23;100.00;62281.09;5138524;27;20043;-67
2023/11/25 08:33:47;;;;;;;1.23;0.97;;;;;;;-141.23;100.00;62281.09;5104217;27;20034;-68
2023/11/25 08:36:14;;;;;;;0.73;0.73;;;;;;;-141.23;100.00;62281.09;5104443;27;20141;-68
2023/11/25 08:38:40;;;;;;;0.67;0.67;;;;;;;-141.23;100.00;62281.09;5138730;27;20050;-67
2023/11/25 08:41:06;;;;;;;0.87;0.83;;;;;;;-141.23;100.00;62281.09;5121610;27;20053;-68
2023/11/25 08:43:45;;;;;;;0.70;0.70;;;;;;;-141.23;100.00;62281.09;5120987;27;20057;-68
2023/11/25 08:46:12;;;;;;;0.77;0.77;;;;;;;-141.23;100.00;62281.09;5105169;27;20065;-68
2023/11/25 08:48:41;;;;;;;1.03;0.90;;;;;;;-141.23;100.00;62281.09;5138295;27;20046;-68
2023/11/25 08:51:11;;;;;;;1.73;1.50;;;;;;;-141.23;100.00;62281.09;5104768;27;20216;-68
2023/11/25 08:53:44;;;;;;;0.83;0.80;;;;;;;-141.23;100.00;62281.09;5121983;27;20038;-68
2023/11/25 08:56:10;;;;;;;1.17;0.97;;;;;;;-141.23;100.00;62281.09;5138885;27;20537;-68
2023/11/25 08:58:36;;;;;;;1.43;0.83;;;;;;;-141.23;100.00;62281.09;5137710;27;20072;-68
2023/11/25 09:01:02;;;;;;;0.87;0.87;;;;;;;-141.23;100.00;62281.09;5137966;27;20408;-68
2023/11/25 09:03:28;;;;;;;0.73;0.70;;;;;;;-141.23;100.00;62281.09;5120716;27;20099;-68
2023/11/25 09:05:54;;;;;;;0.87;0.87;;;;;;;-141.23;100.00;62281.09;5103681;27;20042;-68
2023/11/25 09:08:20;;;;;;;0.87;0.83;;;;;;;-141.23;100.00;62281.09;5103216;27;20100;-68
2023/11/25 09:10:47;;;;;;;1.03;0.97;;;;;;;-141.23;100.00;62281.09;5103891;27;20077;-68
2023/11/25 09:13:13;;;;;;;0.80;0.80;;;;;;;-141.23;100.00;62281.09;5137515;27;20466;-68
2023/11/25 09:15:39;;;;;;;1.23;1.07;;;;;;;-141.23;100.00;62281.09;5103817;27;20045;-68
2023/11/25 09:18:06;;;;;;;1.30;0.97;;;;;;;-141.23;100.00;62281.09;5103308;27;20066;-68
2023/11/25 09:20:34;;;;;;;4.37;2.57;;;;;;;-141.23;100.00;62281.09;5104185;27;20504;-68
2023/11/25 09:23:01;;;;;;;3.30;2.33;;;;;;;-141.23;100.00;62281.09;5137753;27;20047;-69
2023/11/25 09:25:29;;;;;;;10.47;5.60;;;;;;;-141.23;100.00;62281.09;5120167;27;20043;-68
2023/11/25 09:27:55;;;;;;;16.00;7.90;;;;;;;-141.23;100.00;62281.09;5137611;27;20050;-68
2023/11/25 09:30:23;;;;;;;9.00;4.67;;;;;;;-141.23;100.00;62281.09;5103265;27;20049;-68
2023/11/25 09:32:49;;;;;;;14.57;6.93;;;;;;;-141.23;100.00;62281.09;5154544;27;20050;-68
2023/11/25 09:35:15;;;;;;;2.20;1.97;;;;;;;-141.23;100.00;62281.09;5103186;27;20095;-68
2023/11/25 09:37:42;;;;;;;0.77;0.77;;;;;;;-141.23;100.00;62281.09;5103259;27;20370;-68
2023/11/25 09:40:14;;;;;;;1.03;0.93;;;;;;;-141.23;100.00;62281.09;5120046;27;20459;-68
2023/11/25 09:42:44;;;;;;;7.63;3.73;;;;;;;-141.23;100.00;62281.09;5121095;27;20046;-68
2023/11/25 09:45:10;;;;;;;14.67;7.47;;;;;;;-141.23;100.00;62281.09;5103282;27;20043;-68
2023/11/25 09:47:38;;;;;;;14.87;7.30;;;;;;;-141.23;100.00;62281.09;5103161;27;20042;-68
2023/11/25 09:50:05;;;;;;;11.27;6.10;;;;;;;-141.23;100.00;62281.09;5119700;27;20068;-68
2023/11/25 09:52:33;;;;;;;13.83;6.30;;;;;;;-141.23;100.00;62281.09;5102636;27;20428;-68
2023/11/25 09:54:59;;;;;;;11.10;6.37;;;;;;;-141.23;100.00;62281.09;5136605;27;20046;-68
2023/11/25 09:57:32;;;;;;;4.50;3.33;;;;;;;-141.23;100.00;62281.09;5119689;27;20053;-68
2023/11/25 10:00:00;;;;;;;3.33;2.13;;;;;;;-141.23;100.00;62281.09;5120657;27;20071;-68
2023/11/25 10:02:29;;;;;;;3.57;2.23;;;;;;;-141.23;100.00;62281.09;5076994;28;20135;-68
2023/11/25 10:04:57;;;;;;;6.93;3.43;;;;;;;-141.23;100.00;62281.09;5077709;28;20504;-67
2023/11/25 10:07:23;;;;;;;12.23;5.60;;;;;;;-141.23;100.00;62281.09;5077231;28;20047;-68
2023/11/25 10:09:50;;;;;;;5.63;3.27;;;;;;;-141.23;100.00;62281.09;5077506;28;20494;-68
2023/11/25 10:12:17;;;;;;;2.73;1.90;;;;;;;-141.23;100.00;62281.09;5060652;28;20074;-68
2023/11/25 10:14:44;;;;;;;3.83;2.30;;;;;;;-141.23;100.00;62281.09;5077530;28;20051;-68
2023/11/25 10:17:17;;;;;;;7.43;3.57;;;;;;;-141.23;100.00;62281.09;5077373;28;20051;-68
2023/11/25 10:19:46;;;;;;;6.40;3.37;;;;;;;-141.23;100.00;62281.09;5093857;28;20504;-68
2023/11/25 10:22:13;;;;;;;3.20;2.17;;;;;;;-141.23;100.00;62281.09;5077353;28;20050;-68
2023/11/25 10:24:49;;;;;;;1.40;1.30;;;;;;;-141.23;100.00;62281.09;5077353;28;20062;-68
2023/11/25 10:27:16;;;;;;;0.80;0.80;;;;;;;-141.23;100.00;62281.09;5094401;28;20056;-67
2023/11/25 10:29:42;;;;;;;3.47;2.10;;;;;;;-141.23;100.00;62281.09;5044046;28;20364;-68
2023/11/25 10:32:10;;;;;;;5.57;3.17;;;;;;;-141.23;100.00;62281.09;5093975;28;20054;-68
2023/11/25 10:34:36;;;;;;;15.40;7.57;;;;;;;-141.23;100.00;62281.09;5118827;27;20048;-68
2023/11/25 10:37:04;;;;;;;6.20;3.40;;;;;;;-141.23;100.00;62281.09;5152960;27;20038;-68
2023/11/25 10:39:34;;;;;;;2.33;1.63;;;;;;;-141.23;100.00;62281.09;5102218;27;20087;-67
2023/11/25 10:42:07;;;;;;;6.53;3.20;;;;;;;-141.23;100.00;62281.09;5135821;27;20493;-68
2023/11/25 10:44:34;;;;;;;5.83;3.43;;;;;;;-141.23;100.00;62281.09;5118754;27;20313;-68
2023/11/25 10:47:02;;;;;;;5.07;3.23;;;;;;;-141.23;100.00;62281.09;5135833;27;20043;-68
2023/11/25 10:49:31;;;;;;;3.67;2.40;;;;;;;-141.23;100.00;62281.09;5101976;27;20091;-68
2023/11/25 10:51:58;;;;;;;1.33;1.20;;;;;;;-141.23;100.00;62281.09;5135655;27;20141;-68
2023/11/25 10:54:26;;;;;;;16.77;7.23;;;;;;;-141.23;100.00;62281.09;5118318;27;20488;-69
2023/11/25 10:56:54;;;;;;;3.87;2.43;;;;;;;-141.23;100.00;62281.09;5118409;27;20046;-68
2023/11/25 10:59:20;;;;;;;2.07;1.37;;;;;;;-141.23;100.00;62281.09;5135507;27;20436;-68
2023/11/25 11:01:49;;;;;;;1.17;1.07;;;;;;;-141.23;100.00;62281.09;5101780;27;20049;-68
2023/11/25 11:04:19;;;;;;;1.40;1.00;;;;;;;-141.23;100.00;62281.09;5080494;28;20046;-68
2023/11/25 11:06:49;;;;;;;10.88;5.00;;;;;;;-141.23;100.00;62281.09;5080635;27;20067;-68
2023/11/25 11:09:20;;;;;;;10.30;4.93;;;;;;;-141.23;100.00;62281.09;5097311;27;20101;-69
2023/11/25 11:11:56;;;;;;;15.43;7.27;;;;;;;-141.23;100.00;62281.09;5080283;28;20385;-71